createdAt,value
2019-01-21T00:01:06.732Z,101.05
2019-01-21T00:02:10.719Z,89.25
2019-01-21T00:03:15.204Z,73.20
2019-01-21T00:04:19.209Z,73.35
2019-01-21T00:05:23.376Z,68.28
2019-01-21T00:06:27.372Z,64.45
2019-01-21T00:07:31.527Z,71.00
2019-01-21T00:08:35.362Z,63.83
2019-01-21T00:09:39.551Z,68.33
2019-01-21T00:10:43.545Z,62.78
2019-01-21T00:11:48.027Z,68.47
2019-01-21T00:12:51.954Z,66.60
2019-01-21T00:13:55.946Z,83.42
2019-01-21T00:15:00.103Z,68.40
2019-01-21T00:16:04.233Z,68.55
2019-01-21T00:17:08.469Z,59.10
2019-01-21T00:18:12.458Z,60.05
2019-01-21T00:19:16.301Z,58.80
2019-01-21T00:20:20.544Z,60.45
2019-01-21T00:21:24.475Z,60.40
2019-01-21T00:22:28.477Z,61.08
2019-01-21T00:23:32.403Z,59.63
2019-01-21T00:24:36.695Z,64.15
2019-01-21T00:25:40.711Z,67.90
2019-01-21T00:26:44.772Z,62.08
2019-01-21T00:27:49.080Z,73.57
2019-01-21T00:28:53.592Z,74.45
2019-01-21T00:29:57.536Z,73.42
2019-01-21T00:31:01.562Z,78.87
2019-01-21T00:32:05.903Z,70.37
2019-01-21T00:33:09.923Z,69.62
2019-01-21T00:34:14.109Z,64.97
2019-01-21T00:35:18.119Z,59.65
2019-01-21T00:36:22.523Z,63.70
2019-01-21T00:37:26.449Z,64.12
2019-01-21T00:38:30.368Z,57.15
2019-01-21T00:39:34.297Z,59.38
2019-01-21T00:40:38.604Z,58.95
2019-01-21T00:41:42.455Z,60.17
2019-01-21T00:42:46.383Z,63.02
2019-01-21T00:43:50.380Z,60.23
2019-01-21T00:44:54.631Z,64.07
2019-01-21T00:45:58.573Z,59.33
2019-01-21T00:47:02.500Z,58.78
2019-01-21T00:48:06.836Z,62.53
2019-01-21T00:49:10.899Z,58.68
2019-01-21T00:50:15.556Z,60.60
2019-01-21T00:51:20.173Z,67.78
2019-01-21T00:52:24.208Z,60.25
2019-01-21T00:53:29.621Z,58.38
2019-01-21T00:54:33.691Z,57.90
2019-01-21T00:55:37.717Z,60.20
2019-01-21T00:56:41.720Z,61.88
2019-01-21T00:57:46.020Z,59.35
2019-01-21T00:58:50.328Z,61.53
2019-01-21T00:59:54.257Z,64.58
2019-01-21T01:00:58.286Z,59.42
2019-01-21T01:02:02.216Z,58.78
2019-01-21T01:03:06.641Z,59.60
2019-01-21T01:04:10.958Z,62.27
2019-01-21T01:05:15.815Z,58.45
2019-01-21T01:06:19.830Z,59.03
2019-01-21T01:07:23.828Z,57.85
2019-01-21T01:08:28.081Z,60.12
2019-01-21T01:09:32.323Z,60.20
2019-01-21T01:10:36.235Z,59.90
2019-01-21T01:11:40.499Z,59.27
2019-01-21T01:12:45.003Z,57.85
2019-01-21T01:13:48.999Z,61.95
2019-01-21T01:14:52.991Z,57.40
2019-01-21T01:15:57.525Z,59.88
2019-01-21T01:17:01.534Z,57.70
2019-01-21T01:18:05.876Z,60.78
2019-01-21T01:19:10.117Z,56.68
2019-01-21T01:20:16.173Z,59.95
2019-01-21T01:21:20.032Z,61.58
2019-01-21T01:22:23.960Z,62.50
2019-01-21T01:23:30.780Z,56.70
2019-01-21T01:24:34.632Z,60.20
2019-01-21T01:25:38.589Z,62.25
2019-01-21T01:26:42.845Z,60.73
2019-01-21T01:27:47.008Z,56.28
2019-01-21T01:28:51.168Z,57.60
2019-01-21T01:29:55.089Z,57.17
2019-01-21T01:30:59.242Z,58.95
2019-01-21T01:32:03.177Z,59.98
2019-01-21T01:33:07.429Z,56.70
2019-01-21T01:34:11.413Z,58.15
2019-01-21T01:35:16.868Z,55.85
2019-01-21T01:36:21.119Z,57.98
2019-01-21T01:37:25.047Z,56.58
2019-01-21T01:38:28.963Z,56.02
2019-01-21T01:39:33.122Z,57.73
2019-01-21T01:40:37.116Z,58.60
2019-01-21T01:41:41.107Z,58.90
2019-01-21T01:42:45.113Z,56.85
2019-01-21T01:43:48.987Z,57.98
2019-01-21T01:44:53.199Z,62.58
2019-01-21T01:45:57.126Z,57.33
2019-01-21T01:47:01.035Z,55.92
2019-01-21T01:48:06.051Z,57.05
2019-01-21T01:49:10.095Z,62.08
2019-01-21T01:50:14.183Z,59.55
2019-01-21T01:51:18.172Z,57.53
2019-01-21T01:52:22.160Z,59.03
2019-01-21T01:53:26.104Z,60.05
2019-01-21T01:54:30.460Z,61.37
2019-01-21T01:55:34.956Z,59.98
2019-01-21T01:56:39.228Z,60.52
2019-01-21T01:57:43.520Z,59.98
2019-01-21T01:58:47.439Z,63.02
2019-01-21T01:59:51.791Z,62.35
2019-01-21T02:00:55.790Z,60.67
2019-01-21T02:02:00.328Z,58.45
2019-01-21T02:03:04.515Z,57.30
2019-01-21T02:04:08.526Z,59.00
2019-01-21T02:05:12.951Z,57.70
2019-01-21T02:06:17.015Z,58.78
2019-01-21T02:07:21.011Z,57.43
2019-01-21T02:08:25.339Z,63.15
2019-01-21T02:09:29.340Z,57.10
2019-01-21T02:10:33.271Z,60.73
2019-01-21T02:11:37.300Z,59.27
2019-01-21T02:12:41.547Z,56.05
2019-01-21T02:13:45.752Z,61.60
2019-01-21T02:14:50.368Z,57.80
2019-01-21T02:15:54.569Z,59.20
2019-01-21T02:16:58.880Z,56.40
2019-01-21T02:18:02.926Z,56.75
2019-01-21T02:19:06.919Z,57.15
2019-01-21T02:20:12.686Z,59.05
2019-01-21T02:21:17.264Z,54.85
2019-01-21T02:22:23.660Z,59.10
2019-01-21T02:23:32.508Z,64.47
2019-01-21T02:24:40.921Z,56.55
2019-01-21T02:25:53.311Z,56.33
2019-01-21T02:27:31.795Z,57.30
2019-01-21T02:28:59.413Z,60.00
2019-01-21T02:30:17.025Z,59.58
2019-01-21T02:31:57.298Z,58.70
2019-01-21T02:33:42.555Z,62.33
2019-01-21T02:35:27.346Z,59.55
2019-01-21T02:37:00.324Z,60.63
2019-01-21T02:38:32.742Z,60.43
2019-01-21T02:40:05.546Z,57.25
2019-01-21T02:41:28.032Z,61.05
2019-01-21T02:43:19.092Z,60.50
2019-01-21T02:44:55.168Z,57.08
2019-01-21T02:46:40.211Z,59.70
2019-01-21T02:48:06.096Z,56.88
2019-01-21T02:49:32.757Z,56.80
2019-01-21T02:51:11.848Z,57.05
2019-01-21T02:52:37.857Z,57.33
2019-01-21T02:54:06.416Z,56.40
2019-01-21T02:55:47.819Z,56.92
2019-01-21T02:57:45.165Z,54.95
2019-01-21T02:59:10.892Z,52.27
2019-01-21T03:00:22.909Z,54.50
2019-01-21T03:02:04.913Z,54.50
2019-01-21T03:03:39.172Z,52.10
2019-01-21T03:05:29.676Z,51.75
2019-01-21T03:06:43.592Z,51.58
2019-01-21T03:08:37.801Z,52.93
2019-01-21T03:10:22.223Z,45.70
2019-01-21T03:12:09.570Z,52.43
2019-01-21T03:13:39.217Z,50.55
2019-01-21T03:15:10.422Z,47.05
2019-01-21T03:16:55.888Z,50.75
2019-01-21T03:18:28.226Z,49.38
2019-01-21T03:20:13.980Z,52.53
2019-01-21T03:21:43.745Z,52.50
2019-01-21T03:23:31.764Z,47.75
2019-01-21T03:25:24.418Z,46.95
2019-01-21T03:27:24.392Z,47.53
2019-01-21T03:29:11.314Z,45.65
2019-01-21T03:30:34.451Z,46.28
2019-01-21T03:32:03.104Z,46.45
2019-01-21T03:33:31.474Z,45.83
2019-01-21T03:35:04.390Z,45.43
2019-01-21T03:36:47.791Z,47.75
2019-01-21T03:38:39.015Z,45.58
2019-01-21T03:40:46.183Z,42.93
2019-01-21T03:42:06.172Z,45.48
2019-01-21T03:43:55.853Z,49.88
2019-01-21T03:46:10.738Z,42.75
2019-01-21T03:47:34.666Z,48.40
2019-01-21T03:48:48.308Z,44.40
2019-01-21T03:50:32.545Z,47.65
2019-01-21T03:52:11.701Z,44.00
2019-01-21T03:53:43.921Z,42.43
2019-01-21T03:54:58.918Z,43.63
2019-01-21T03:56:08.454Z,50.48
2019-01-21T03:57:33.601Z,43.98
2019-01-21T03:59:33.665Z,44.77
2019-01-21T04:00:53.509Z,44.18
2019-01-21T04:02:43.794Z,43.83
2019-01-21T04:04:08.526Z,46.28
2019-01-21T04:05:24.359Z,46.70
2019-01-21T04:06:56.938Z,46.42
2019-01-21T04:08:33.542Z,49.85
2019-01-21T04:10:04.287Z,44.10
2019-01-21T04:11:45.480Z,48.08
2019-01-21T04:13:18.686Z,47.05
2019-01-21T04:15:05.185Z,44.95
2019-01-21T04:16:27.837Z,44.95
2019-01-21T04:18:03.153Z,48.80
2019-01-21T04:19:42.384Z,47.58
2019-01-21T04:21:39.805Z,44.53
2019-01-21T04:23:12.390Z,46.08
2019-01-21T04:24:34.333Z,47.67
2019-01-21T04:26:22.369Z,46.23
2019-01-21T04:27:41.793Z,38.85
2019-01-21T04:29:29.355Z,44.18
2019-01-21T04:31:00.362Z,47.98
2019-01-21T04:32:37.294Z,44.25
2019-01-21T04:34:36.210Z,44.93
2019-01-21T04:36:20.076Z,43.50
2019-01-21T04:37:56.060Z,44.18
2019-01-21T04:39:12.262Z,45.25
2019-01-21T04:41:14.692Z,45.50
2019-01-21T04:43:01.663Z,45.52
2019-01-21T04:44:49.861Z,47.35
2019-01-21T04:46:26.453Z,45.48
2019-01-21T04:47:55.802Z,45.50
2019-01-21T04:49:28.169Z,45.17
2019-01-21T04:51:04.340Z,45.43
2019-01-21T04:52:41.142Z,45.23
2019-01-21T04:54:20.922Z,46.37
2019-01-21T04:55:42.155Z,45.60
2019-01-21T04:57:27.655Z,50.23
2019-01-21T04:59:02.344Z,47.38
2019-01-21T05:00:52.749Z,48.48
2019-01-21T05:02:33.047Z,46.23
2019-01-21T05:04:20.202Z,48.80
2019-01-21T05:05:52.579Z,47.95
2019-01-21T05:07:32.349Z,50.58
2019-01-21T05:09:11.757Z,48.30
2019-01-21T05:10:46.204Z,48.70
2019-01-21T05:12:04.089Z,48.60
2019-01-21T05:13:45.574Z,50.83
2019-01-21T05:15:30.565Z,47.62
2019-01-21T05:17:17.270Z,45.70
2019-01-21T05:18:52.475Z,43.23
2019-01-21T05:20:40.251Z,47.80
2019-01-21T05:22:42.976Z,49.53
2019-01-21T05:24:20.869Z,45.90
2019-01-21T05:26:23.989Z,45.28
2019-01-21T05:27:55.204Z,47.05
2019-01-21T05:29:20.779Z,48.23
2019-01-21T05:30:45.494Z,44.73
2019-01-21T05:32:35.875Z,43.70
2019-01-21T05:33:56.826Z,49.75
2019-01-21T05:35:29.005Z,49.30
2019-01-21T05:37:11.816Z,47.70
2019-01-21T05:38:42.654Z,47.17
2019-01-21T05:40:13.389Z,46.35
2019-01-21T05:41:53.124Z,47.05
2019-01-21T05:43:34.268Z,49.60
2019-01-21T05:45:17.122Z,50.92
2019-01-21T05:46:51.289Z,48.55
2019-01-21T05:48:48.857Z,50.85
2019-01-21T05:50:05.849Z,51.45
2019-01-21T05:51:48.886Z,49.75
2019-01-21T05:53:30.141Z,53.05
2019-01-21T05:55:02.832Z,45.05
2019-01-21T05:56:30.566Z,52.25
2019-01-21T05:58:11.023Z,49.05
2019-01-21T06:00:04.969Z,51.40
2019-01-21T06:02:11.885Z,47.90
2019-01-21T06:03:54.394Z,47.03
2019-01-21T06:05:32.905Z,51.63
2019-01-21T06:07:16.985Z,54.63
2019-01-21T06:08:55.567Z,49.98
2019-01-21T06:10:14.468Z,46.90
2019-01-21T06:11:53.347Z,52.67
2019-01-21T06:13:41.487Z,45.78
2019-01-21T06:15:11.606Z,49.58
2019-01-21T06:16:41.879Z,47.73
2019-01-21T06:18:14.165Z,51.53
2019-01-21T06:19:42.228Z,52.65
2019-01-21T06:21:35.665Z,53.98
2019-01-21T06:23:09.528Z,56.75
2019-01-21T06:24:34.201Z,54.35
2019-01-21T06:26:11.600Z,56.13
2019-01-21T06:27:38.700Z,58.05
2019-01-21T06:29:18.905Z,47.88
2019-01-21T06:30:55.461Z,57.65
2019-01-21T06:32:41.765Z,72.78
2019-01-21T06:34:13.857Z,61.13
2019-01-21T06:35:39.482Z,56.40
2019-01-21T06:37:22.019Z,54.77
2019-01-21T06:39:17.977Z,61.85
2019-01-21T06:40:57.559Z,58.50
2019-01-21T06:42:48.374Z,55.05
2019-01-21T06:44:42.598Z,55.05
2019-01-21T06:46:25.545Z,55.28
2019-01-21T06:48:18.581Z,51.30
2019-01-21T06:50:12.701Z,55.30
2019-01-21T06:51:53.820Z,49.42
2019-01-21T06:53:45.114Z,52.67
2019-01-21T06:55:33.621Z,52.70
2019-01-21T06:57:20.794Z,49.20
2019-01-21T06:59:02.352Z,54.58
2019-01-21T07:00:44.314Z,54.20
2019-01-21T07:04:15.286Z,55.45
2019-01-21T07:06:21.581Z,56.77
2019-01-21T07:07:56.393Z,54.18
2019-01-21T07:09:19.325Z,55.15
2019-01-21T07:10:39.119Z,59.55
2019-01-21T07:11:58.693Z,59.65
2019-01-21T07:13:49.969Z,57.35
2019-01-21T07:15:24.222Z,57.10
2019-01-21T07:16:50.426Z,61.85
2019-01-21T07:18:12.253Z,63.42
2019-01-21T07:19:36.500Z,65.65
2019-01-21T07:20:54.504Z,69.00
2019-01-21T07:22:22.285Z,71.22
2019-01-21T07:24:06.424Z,79.75
2019-01-21T07:25:53.971Z,72.17
2019-01-21T07:27:23.773Z,61.42
2019-01-21T07:29:05.155Z,67.05
2019-01-21T07:30:35.569Z,60.30
2019-01-21T07:32:03.448Z,61.75
2019-01-21T07:33:31.825Z,65.25
2019-01-21T07:35:24.604Z,62.17
2019-01-21T07:37:07.361Z,54.83
2019-01-21T07:38:32.329Z,53.60
2019-01-21T07:40:20.832Z,48.42
2019-01-21T07:41:45.169Z,52.98
2019-01-21T07:43:06.811Z,61.00
2019-01-21T07:44:52.496Z,65.40
2019-01-21T07:46:56.148Z,57.65
2019-01-21T07:48:39.969Z,63.83
2019-01-21T07:50:18.952Z,63.38
2019-01-21T07:51:59.261Z,57.55
2019-01-21T07:53:32.882Z,58.65
2019-01-21T07:55:15.393Z,56.95
2019-01-21T07:57:18.949Z,59.95
2019-01-21T07:59:26.028Z,62.33
2019-01-21T08:01:06.897Z,64.00
2019-01-21T08:03:16.328Z,64.40
2019-01-21T08:04:41.724Z,58.42
2019-01-21T08:06:11.048Z,66.30
2019-01-21T08:07:36.269Z,63.55
2019-01-21T08:09:19.789Z,67.75
2019-01-21T08:11:17.243Z,63.63
2019-01-21T08:12:48.774Z,63.40
2019-01-21T08:14:18.134Z,65.17
2019-01-21T08:15:39.421Z,68.70
2019-01-21T08:17:24.910Z,66.47
2019-01-21T08:18:53.428Z,67.10
2019-01-21T08:20:21.862Z,66.95
2019-01-21T08:22:18.914Z,71.82
2019-01-21T08:23:51.397Z,68.83
2019-01-21T08:25:26.244Z,75.95
2019-01-21T08:26:52.953Z,70.87
2019-01-21T08:28:21.841Z,60.63
2019-01-21T08:30:13.119Z,51.95
2019-01-21T08:31:49.140Z,52.55
2019-01-21T08:33:25.310Z,58.35
2019-01-21T08:35:06.300Z,52.23
2019-01-21T08:36:34.937Z,53.15
2019-01-21T08:38:19.894Z,54.83
2019-01-21T08:39:50.551Z,56.68
2019-01-21T08:41:24.003Z,52.95
2019-01-21T08:43:04.511Z,53.23
2019-01-21T08:44:45.628Z,53.48
2019-01-21T08:46:26.375Z,55.08
2019-01-21T08:48:07.422Z,54.45
2019-01-21T08:50:07.621Z,61.53
2019-01-21T08:51:29.243Z,51.08
2019-01-21T08:53:12.857Z,50.92
2019-01-21T08:54:52.335Z,50.67
2019-01-21T08:56:22.067Z,52.48
2019-01-21T08:58:01.571Z,55.48
2019-01-21T08:59:22.061Z,63.42
2019-01-21T09:00:42.183Z,63.40
2019-01-21T09:02:45.229Z,63.05
2019-01-21T09:04:13.770Z,52.27
2019-01-21T09:06:10.257Z,47.88
2019-01-21T09:07:44.346Z,52.95
2019-01-21T09:09:07.819Z,58.42
2019-01-21T09:10:23.166Z,54.73
2019-01-21T09:12:29.693Z,54.90
2019-01-21T09:13:55.252Z,53.23
2019-01-21T09:15:24.428Z,56.08
2019-01-21T09:16:52.410Z,50.55
2019-01-21T09:18:19.324Z,56.28
2019-01-21T09:20:10.480Z,50.75
2019-01-21T09:21:43.253Z,56.50
2019-01-21T09:23:25.461Z,61.23
2019-01-21T09:25:07.423Z,61.55
2019-01-21T09:26:38.491Z,51.73
2019-01-21T09:28:20.651Z,54.93
2019-01-21T09:29:59.204Z,54.23
2019-01-21T09:31:24.556Z,55.30
2019-01-21T09:33:06.904Z,58.28
2019-01-21T09:34:47.621Z,72.72
2019-01-21T09:36:40.554Z,59.73
2019-01-21T09:38:49.864Z,57.55
2019-01-21T09:40:47.921Z,54.38
2019-01-21T09:42:17.395Z,51.83
2019-01-21T09:43:31.008Z,50.38
2019-01-21T09:44:59.813Z,57.83
2019-01-21T09:46:39.297Z,59.40
2019-01-21T09:47:41.735Z,56.95
2019-01-21T09:48:44.141Z,62.15
2019-01-21T09:49:48.445Z,56.20
2019-01-21T09:50:52.546Z,58.30
2019-01-21T09:52:18.443Z,56.60
2019-01-21T09:53:22.473Z,59.20
2019-01-21T09:54:26.979Z,63.13
2019-01-21T09:55:31.078Z,59.53
2019-01-21T09:56:35.096Z,63.75
2019-01-21T09:57:39.197Z,68.15
2019-01-21T09:58:44.514Z,63.35
2019-01-21T09:59:52.312Z,61.42
2019-01-21T10:00:57.854Z,65.72
2019-01-21T10:02:05.440Z,66.33
2019-01-21T10:03:12.080Z,68.55
2019-01-21T10:04:23.362Z,65.47
2019-01-21T10:05:30.934Z,74.03
2019-01-21T10:07:16.044Z,74.77
2019-01-21T10:08:30.441Z,83.00
2019-01-21T10:09:57.452Z,86.02
2019-01-21T10:11:32.689Z,106.45
2019-01-21T10:13:14.001Z,97.42
2019-01-21T10:14:59.631Z,92.92
2019-01-21T10:16:47.735Z,97.15
2019-01-21T10:18:28.857Z,91.92
2019-01-21T10:19:55.729Z,91.92
2019-01-21T10:21:32.224Z,91.08
2019-01-21T10:23:37.015Z,88.33
2019-01-21T10:25:02.568Z,86.85
2019-01-21T10:26:57.837Z,88.35
2019-01-21T10:28:45.435Z,84.95
2019-01-21T10:30:09.611Z,81.80
2019-01-21T10:31:59.471Z,87.12
2019-01-21T10:33:43.761Z,93.90
2019-01-21T10:35:23.984Z,93.37
2019-01-21T10:37:03.376Z,103.25
2019-01-21T10:38:35.210Z,99.17
2019-01-21T10:40:18.509Z,78.10
2019-01-21T10:41:36.531Z,81.95
2019-01-21T10:43:06.448Z,90.45
2019-01-21T10:44:35.769Z,85.10
2019-01-21T10:45:49.974Z,78.90
2019-01-21T10:47:10.984Z,83.58
2019-01-21T10:48:31.577Z,72.92
2019-01-21T10:50:14.341Z,65.15
2019-01-21T10:51:44.434Z,74.12
2019-01-21T10:53:15.708Z,70.57
2019-01-21T10:54:57.733Z,71.17
2019-01-21T10:56:30.192Z,66.75
2019-01-21T10:57:55.880Z,78.60
2019-01-21T10:59:55.115Z,71.30
2019-01-21T11:01:26.529Z,65.60
2019-01-21T11:03:10.105Z,64.53
2019-01-21T11:04:40.108Z,66.07
2019-01-21T11:06:10.208Z,61.63
2019-01-21T11:07:47.116Z,62.58
2019-01-21T11:09:35.283Z,61.50
2019-01-21T11:10:56.744Z,67.22
2019-01-21T11:12:22.877Z,68.62
2019-01-21T11:13:55.616Z,66.28
2019-01-21T11:15:47.321Z,66.75
2019-01-21T11:17:23.768Z,63.28
2019-01-21T11:18:56.553Z,74.03
2019-01-21T11:20:56.824Z,63.73
2019-01-21T11:22:13.218Z,66.00
2019-01-21T11:23:46.400Z,57.98
2019-01-21T11:25:12.561Z,61.85
2019-01-21T11:26:52.812Z,62.80
2019-01-21T11:28:10.869Z,62.03
2019-01-21T11:29:54.334Z,77.47
2019-01-21T11:31:45.323Z,56.73
2019-01-21T11:33:16.693Z,56.65
2019-01-21T11:35:19.731Z,68.00
2019-01-21T11:37:04.659Z,61.28
2019-01-21T11:38:31.401Z,62.38
2019-01-21T11:39:53.489Z,56.53
2019-01-21T11:41:41.228Z,55.60
2019-01-21T11:43:14.043Z,55.48
2019-01-21T11:45:08.016Z,52.85
2019-01-21T11:46:23.485Z,53.23
2019-01-21T11:48:04.644Z,57.15
2019-01-21T11:49:54.964Z,61.55
2019-01-21T11:51:15.672Z,57.10
2019-01-21T11:52:42.476Z,54.13
2019-01-21T11:54:16.659Z,55.65
2019-01-21T11:56:14.020Z,57.10
2019-01-21T11:58:02.028Z,56.73
2019-01-21T11:59:53.005Z,52.53
2019-01-21T12:01:10.495Z,52.17
2019-01-21T12:02:37.626Z,63.08
2019-01-21T12:03:57.276Z,55.50
2019-01-21T12:05:19.780Z,49.23
2019-01-21T12:06:33.779Z,52.85
2019-01-21T12:08:29.479Z,53.23
2019-01-21T12:10:17.802Z,49.23
2019-01-21T12:12:00.274Z,52.62
2019-01-21T12:13:59.208Z,52.27
2019-01-21T12:15:44.372Z,47.10
2019-01-21T12:17:23.404Z,46.63
2019-01-21T12:18:55.259Z,50.63
2019-01-21T12:20:19.821Z,45.05
2019-01-21T12:22:08.271Z,46.00
2019-01-21T12:23:59.297Z,47.13
2019-01-21T12:25:10.984Z,52.30
2019-01-21T12:26:45.257Z,50.88
2019-01-21T12:28:19.608Z,64.58
2019-01-21T12:29:49.325Z,53.30
2019-01-21T12:31:34.628Z,54.85
2019-01-21T12:33:01.908Z,54.18
2019-01-21T12:34:55.160Z,50.80
2019-01-21T12:36:12.986Z,46.53
2019-01-21T12:37:26.808Z,48.98
2019-01-21T12:38:54.984Z,55.55
2019-01-21T12:40:26.640Z,53.10
2019-01-21T12:42:01.779Z,42.75
2019-01-21T12:43:21.330Z,47.65
2019-01-21T12:45:19.102Z,46.10
2019-01-21T12:46:47.654Z,47.05
2019-01-21T12:48:31.712Z,44.93
2019-01-21T12:49:53.940Z,43.90
2019-01-21T12:51:19.858Z,43.63
2019-01-21T12:53:10.817Z,42.55
2019-01-21T12:55:14.542Z,44.83
2019-01-21T12:57:11.992Z,46.08
2019-01-21T12:58:59.846Z,45.15
2019-01-21T13:00:50.024Z,44.55
2019-01-21T13:02:11.755Z,42.25
2019-01-21T13:03:51.887Z,42.20
2019-01-21T13:05:20.710Z,48.40
2019-01-21T13:07:02.139Z,43.80
2019-01-21T13:08:22.137Z,39.75
2019-01-21T13:09:53.940Z,43.55
2019-01-21T13:11:13.528Z,49.70
2019-01-21T13:12:48.970Z,41.40
2019-01-21T13:14:27.605Z,40.55
2019-01-21T13:15:50.685Z,44.30
2019-01-21T13:17:21.705Z,46.00
2019-01-21T13:19:13.585Z,46.20
2019-01-21T13:21:03.595Z,46.85
2019-01-21T13:22:51.595Z,44.40
2019-01-21T13:24:08.812Z,49.27
2019-01-21T13:25:52.440Z,41.02
2019-01-21T13:27:16.532Z,43.17
2019-01-21T13:29:03.519Z,41.60
2019-01-21T13:30:18.499Z,49.80
2019-01-21T13:32:03.951Z,46.53
2019-01-21T13:33:33.904Z,45.17
2019-01-21T13:35:30.087Z,40.17
2019-01-21T13:36:57.456Z,37.20
2019-01-21T13:38:19.695Z,40.85
2019-01-21T13:40:02.552Z,50.28
2019-01-21T13:42:05.977Z,43.30
2019-01-21T13:43:38.784Z,42.70
2019-01-21T13:45:15.136Z,39.65
2019-01-21T13:47:18.164Z,45.35
2019-01-21T13:49:00.004Z,39.42
2019-01-21T13:50:36.955Z,37.20
2019-01-21T13:52:05.861Z,36.00
2019-01-21T13:53:59.609Z,46.30
2019-01-21T13:55:18.402Z,46.45
2019-01-21T13:56:37.447Z,43.02
2019-01-21T13:57:57.092Z,48.92
2019-01-21T13:59:56.122Z,44.50
2019-01-21T14:01:25.195Z,40.88
2019-01-21T14:02:40.098Z,39.75
2019-01-21T14:04:10.276Z,43.80
2019-01-21T14:05:35.340Z,41.77
2019-01-21T14:07:07.518Z,42.20
2019-01-21T14:08:40.892Z,41.35
2019-01-21T14:10:06.137Z,49.88
2019-01-21T14:11:18.995Z,49.70
2019-01-21T14:13:00.665Z,40.30
2019-01-21T14:14:30.414Z,38.83
2019-01-21T14:16:12.208Z,36.75
2019-01-21T14:17:55.803Z,39.35
2019-01-21T14:19:36.185Z,46.48
2019-01-21T14:21:02.687Z,47.88
2019-01-21T14:22:35.966Z,50.00
2019-01-21T14:23:52.884Z,41.53
2019-01-21T14:25:32.828Z,40.90
2019-01-21T14:27:00.785Z,47.85
2019-01-21T14:28:57.317Z,43.48
2019-01-21T14:30:11.600Z,42.43
2019-01-21T14:31:56.572Z,48.50
2019-01-21T14:33:46.948Z,44.08
2019-01-21T14:35:20.526Z,40.05
2019-01-21T14:36:55.408Z,43.73
2019-01-21T14:38:49.271Z,46.65
2019-01-21T14:40:15.858Z,46.05
2019-01-21T14:41:54.319Z,43.98
2019-01-21T14:43:51.380Z,48.83
2019-01-21T14:45:32.554Z,52.60
2019-01-21T14:47:02.047Z,53.55
2019-01-21T14:48:34.921Z,60.20
2019-01-21T14:49:56.810Z,45.05
2019-01-21T14:51:49.782Z,45.40
2019-01-21T14:53:28.864Z,44.98
2019-01-21T14:55:22.935Z,41.63
2019-01-21T14:57:07.333Z,44.75
2019-01-21T14:58:27.457Z,44.90
2019-01-21T15:00:03.586Z,45.58
2019-01-21T15:01:48.052Z,50.95
2019-01-21T15:03:36.872Z,52.78
2019-01-21T15:04:56.218Z,51.73
2019-01-21T15:06:26.701Z,55.38
2019-01-21T15:08:04.850Z,54.18
2019-01-21T15:09:40.688Z,45.58
2019-01-21T15:11:20.704Z,49.45
2019-01-21T15:12:51.007Z,55.43
2019-01-21T15:14:19.418Z,60.20
2019-01-21T15:15:50.878Z,56.37
2019-01-21T15:17:45.571Z,50.85
2019-01-21T15:19:05.094Z,49.70
2019-01-21T15:20:33.031Z,51.42
2019-01-21T15:22:33.775Z,47.62
2019-01-21T15:24:28.037Z,46.88
2019-01-21T15:26:03.523Z,48.55
2019-01-21T15:27:48.394Z,50.08
2019-01-21T15:29:24.615Z,54.30
2019-01-21T15:31:15.620Z,53.02
2019-01-21T15:32:48.157Z,54.30
2019-01-21T15:34:15.551Z,49.75
2019-01-21T15:35:57.242Z,49.75
2019-01-21T15:37:19.583Z,54.00
2019-01-21T15:39:08.063Z,51.13
2019-01-21T15:40:45.788Z,48.42
2019-01-21T15:42:36.716Z,51.55
2019-01-21T15:44:08.200Z,51.05
2019-01-21T15:45:55.551Z,52.60
2019-01-21T15:47:38.428Z,51.28
2019-01-21T15:49:04.092Z,51.20
2019-01-21T15:50:28.845Z,55.08
2019-01-21T15:51:58.584Z,50.70
2019-01-21T15:53:46.792Z,57.48
2019-01-21T15:55:16.343Z,66.07
2019-01-21T15:56:51.307Z,57.45
2019-01-21T15:58:19.107Z,56.95
2019-01-21T15:59:48.968Z,60.63
2019-01-21T16:01:39.469Z,62.23
2019-01-21T16:03:24.945Z,66.92
2019-01-21T16:04:55.532Z,70.65
2019-01-21T16:06:11.438Z,70.05
2019-01-21T16:07:27.264Z,69.87
2019-01-21T16:08:57.049Z,64.77
2019-01-21T16:11:00.188Z,60.80
2019-01-21T16:12:47.536Z,63.20
2019-01-21T16:13:56.990Z,56.80
2019-01-21T16:15:45.002Z,62.27
2019-01-21T16:17:34.570Z,62.08
2019-01-21T16:19:00.370Z,60.88
2019-01-21T16:20:27.186Z,60.08
2019-01-21T16:22:10.743Z,60.33
2019-01-21T16:24:08.303Z,66.57
2019-01-21T16:25:37.619Z,79.27
2019-01-21T16:26:54.468Z,84.80
2019-01-21T16:28:16.724Z,104.80
2019-01-21T16:29:49.448Z,94.47
2019-01-21T16:31:01.765Z,83.03
2019-01-21T16:32:23.400Z,81.20
2019-01-21T16:34:07.502Z,70.35
2019-01-21T16:35:46.849Z,76.70
2019-01-21T16:37:02.111Z,73.17
2019-01-21T16:38:30.315Z,87.25
2019-01-21T16:40:09.012Z,100.62
2019-01-21T16:41:49.985Z,172.82
2019-01-21T16:42:54.005Z,157.27
2019-01-21T16:43:57.938Z,169.65
2019-01-21T16:45:02.479Z,143.97
2019-01-21T16:46:06.797Z,85.95
2019-01-21T16:47:11.160Z,59.77
2019-01-21T16:48:15.168Z,58.42
2019-01-21T16:49:19.088Z,57.23
2019-01-21T16:50:23.120Z,55.92
2019-01-21T16:51:27.713Z,60.17
2019-01-21T16:52:31.704Z,58.68
2019-01-21T16:53:35.715Z,59.48
2019-01-21T16:54:39.695Z,59.50
2019-01-21T16:55:43.617Z,85.28
2019-01-21T16:56:47.470Z,108.70
2019-01-21T16:57:51.485Z,105.70
2019-01-21T16:58:55.824Z,102.50
2019-01-21T16:59:59.824Z,106.47
2019-01-21T17:01:04.111Z,90.50
2019-01-21T17:02:08.109Z,92.80
2019-01-21T17:03:11.960Z,88.35
2019-01-21T17:04:15.957Z,86.95
2019-01-21T17:05:20.012Z,76.17
2019-01-21T17:06:23.956Z,70.45
2019-01-21T17:07:28.031Z,78.72
2019-01-21T17:08:32.840Z,74.50
2019-01-21T17:09:36.913Z,75.65
2019-01-21T17:10:41.216Z,67.55
2019-01-21T17:11:45.148Z,65.55
2019-01-21T17:12:48.997Z,64.07
2019-01-21T17:14:00.232Z,62.60
2019-01-21T17:15:04.987Z,62.65
2019-01-21T17:16:09.768Z,65.17
2019-01-21T17:17:13.860Z,72.97
2019-01-21T17:18:17.861Z,102.25
2019-01-21T17:19:21.853Z,115.30
2019-01-21T17:20:26.181Z,117.45
2019-01-21T17:21:30.179Z,91.60
2019-01-21T17:22:34.387Z,91.72
2019-01-21T17:23:38.398Z,75.83
2019-01-21T17:24:42.899Z,75.80
2019-01-21T17:25:47.502Z,71.75
2019-01-21T17:26:51.824Z,77.80
2019-01-21T17:27:55.911Z,73.12
2019-01-21T17:29:00.241Z,77.62
2019-01-21T17:30:05.420Z,70.52
2019-01-21T17:31:09.342Z,73.80
2019-01-21T17:32:13.335Z,73.57
2019-01-21T17:33:17.779Z,68.25
2019-01-21T17:34:21.794Z,66.65
2019-01-21T17:35:25.783Z,73.80
2019-01-21T17:36:29.994Z,67.75
2019-01-21T17:37:34.080Z,74.62
2019-01-21T17:38:38.091Z,79.62
2019-01-21T17:39:42.496Z,78.00
2019-01-21T17:40:46.487Z,78.90
2019-01-21T17:41:51.012Z,90.10
2019-01-21T17:42:55.009Z,96.57
2019-01-21T17:43:59.093Z,108.10
2019-01-21T17:45:03.423Z,87.50
2019-01-21T17:46:07.479Z,85.10
2019-01-21T17:47:11.940Z,91.20
2019-01-21T17:48:15.864Z,89.52
2019-01-21T17:49:19.891Z,96.70
2019-01-21T17:50:24.144Z,85.50
2019-01-21T17:51:33.772Z,83.90
2019-01-21T17:52:34.297Z,80.07
2019-01-21T17:53:38.391Z,68.80
2019-01-21T17:54:42.456Z,78.52
2019-01-21T17:55:46.383Z,69.92
2019-01-21T17:56:50.740Z,66.55
2019-01-21T17:57:55.427Z,67.17
2019-01-21T17:58:59.396Z,73.28
2019-01-21T18:00:03.735Z,71.05
2019-01-21T18:01:08.071Z,68.70
2019-01-21T18:02:12.083Z,67.30
2019-01-21T18:03:16.004Z,69.82
2019-01-21T18:04:20.015Z,72.90
2019-01-21T18:05:24.259Z,66.15
2019-01-21T18:06:28.565Z,62.20
2019-01-21T18:07:32.975Z,68.37
2019-01-21T18:08:37.183Z,74.12
2019-01-21T18:09:42.447Z,73.65
2019-01-21T18:10:46.363Z,74.75
2019-01-21T18:11:50.603Z,78.95
2019-01-21T18:12:54.591Z,78.20
2019-01-21T18:13:58.499Z,73.95
2019-01-21T18:15:02.831Z,79.07
2019-01-21T18:16:06.826Z,99.55
2019-01-21T18:17:10.811Z,86.90
2019-01-21T18:18:15.231Z,78.45
2019-01-21T18:19:19.220Z,73.78
2019-01-21T18:20:26.359Z,78.47
2019-01-21T18:21:30.528Z,75.83
2019-01-21T18:22:34.688Z,82.42
2019-01-21T18:23:38.920Z,93.67
2019-01-21T18:24:43.161Z,97.17
2019-01-21T18:25:47.181Z,80.35
2019-01-21T18:26:51.419Z,75.75
2019-01-21T18:27:55.261Z,83.10
2019-01-21T18:28:59.645Z,77.10
2019-01-21T18:30:05.388Z,88.15
2019-01-21T18:31:09.411Z,90.75
2019-01-21T18:32:13.403Z,89.62